Time;durP1;ratioP1;P1;durP2;ratioP2;P2;SDS_P1;SDS_P2;PMS_P1;PMS_P2;Temp;Humidity;BMP_temperature;BMP_pressure;BME280_temperature;BME280_humidity;BME280_pressure;Samples;Min_cycle;Max_cycle;Signal;HPM_P1;HPM_P2
2021/06/19 00:05:36;;;;;;;10.63;7.97;;;23.40;99.90;;;;;;12395686;28;20034;-40
2021/06/19 00:11:38;;;;;;;12.85;7.85;;;23.40;99.90;;;;;;12386122;28;20112;-40
2021/06/19 00:17:40;;;;;;;15.00;8.20;;;23.50;99.90;;;;;;12388209;28;20165;-40
2021/06/19 00:23:42;;;;;;;10.52;7.95;;;23.20;99.90;;;;;;12389103;28;20137;-40
2021/06/19 00:29:44;;;;;;;9.77;7.88;;;23.10;99.90;;;;;;12387871;28;20050;-40
2021/06/19 00:35:45;;;;;;;15.02;8.10;;;23.20;99.90;;;;;;12389211;28;20172;-40
2021/06/19 00:41:47;;;;;;;19.58;7.97;;;23.10;99.90;;;;;;12399685;28;20103;-41
2021/06/19 00:47:49;;;;;;;12.93;7.93;;;23.10;99.90;;;;;;12394464;28;20137;-40
2021/06/19 00:53:51;;;;;;;11.77;7.43;;;23.20;99.90;;;;;;12397406;28;20096;-40
2021/06/19 00:59:58;;;;;;;13.25;8.10;;;23.30;99.90;;;;;;12395807;28;20101;-41
2021/06/19 01:05:59;;;;;;;11.80;7.55;;;23.30;99.90;;;;;;12400310;28;20100;-40
2021/06/19 01:12:02;;;;;;;16.23;7.93;;;23.30;99.90;;;;;;12394469;28;20486;-41
2021/06/19 01:18:04;;;;;;;16.88;7.82;;;23.30;99.90;;;;;;12394824;28;20053;-40
2021/06/19 01:24:11;;;;;;;18.58;7.95;;;23.30;99.90;;;;;;12389824;28;20053;-39
2021/06/19 01:30:13;;;;;;;12.70;7.88;;;23.10;99.90;;;;;;12391066;28;20054;-39
2021/06/19 01:36:17;;;;;;;13.13;8.07;;;23.10;99.90;;;;;;12392276;28;20104;-41
2021/06/19 01:42:19;;;;;;;16.52;8.25;;;23.20;99.90;;;;;;12396621;28;20049;-40
2021/06/19 01:48:20;;;;;;;16.65;8.85;;;23.30;99.90;;;;;;12395082;28;20874;-42
2021/06/19 01:54:22;;;;;;;18.55;8.52;;;23.20;99.90;;;;;;12391691;28;20054;-41
2021/06/19 02:00:26;;;;;;;16.95;8.52;;;23.00;99.90;;;;;;12393674;28;20050;-40
2021/06/19 02:06:28;;;;;;;18.30;8.82;;;22.80;99.90;;;;;;12393621;28;20084;-40
2021/06/19 02:12:30;;;;;;;14.95;8.60;;;22.80;99.90;;;;;;12395058;28;20478;-40
2021/06/19 02:18:32;;;;;;;17.63;8.15;;;22.80;99.90;;;;;;12396931;28;20124;-40
2021/06/19 02:24:34;;;;;;;16.40;9.00;;;22.80;99.90;;;;;;12390268;28;20759;-40
2021/06/19 02:30:38;;;;;;;19.65;8.75;;;22.90;99.90;;;;;;12387655;28;20046;-40
2021/06/19 02:36:40;;;;;;;14.43;8.93;;;22.90;99.90;;;;;;12388226;28;20149;-41
2021/06/19 02:42:43;;;;;;;15.82;9.18;;;22.70;99.90;;;;;;12388969;28;20562;-40
2021/06/19 02:48:44;;;;;;;12.43;8.20;;;22.70;99.90;;;;;;12393825;28;20104;-39
2021/06/19 02:54:46;;;;;;;16.45;9.98;;;22.60;99.90;;;;;;12386240;28;20050;-40
2021/06/19 03:00:50;;;;;;;19.15;9.68;;;22.60;99.90;;;;;;12386652;28;20045;-40
2021/06/19 03:06:51;;;;;;;;;;;22.50;99.90;;;;;;12388488;28;20145;-40
2021/06/19 03:12:54;;;;;;;16.60;9.13;;;22.50;99.90;;;;;;12389388;28;19929;-40
2021/06/19 03:18:55;;;;;;;17.65;8.73;;;22.40;99.90;;;;;;12386011;28;20061;-40
2021/06/19 03:24:57;;;;;;;17.20;8.75;;;22.30;99.90;;;;;;12383317;28;20464;-40
2021/06/19 03:30:59;;;;;;;15.20;8.77;;;22.20;99.90;;;;;;12373883;28;20096;-39
2021/06/19 03:37:01;;;;;;;15.45;8.95;;;22.10;99.90;;;;;;12387291;28;20232;-41
2021/06/19 03:43:04;;;;;;;16.85;9.02;;;22.20;99.90;;;;;;12389131;28;20457;-40
2021/06/19 03:49:05;;;;;;;19.07;9.93;;;22.10;99.90;;;;;;12382223;28;20517;-40
2021/06/19 03:55:08;;;;;;;16.33;9.43;;;22.00;99.90;;;;;;12384118;28;20062;-39
2021/06/19 04:01:11;;;;;;;17.43;10.67;;;21.90;99.90;;;;;;12382481;28;20093;-41
2021/06/19 04:07:13;;;;;;;18.93;11.33;;;21.80;99.90;;;;;;12387927;28;20078;-40
2021/06/19 04:13:15;;;;;;;14.55;9.77;;;21.80;99.90;;;;;;12387297;28;20057;-40
2021/06/19 04:19:17;;;;;;;17.02;10.07;;;21.70;99.90;;;;;;12396526;28;20050;-41
2021/06/19 04:25:19;;;;;;;16.30;8.82;;;21.80;99.90;;;;;;12395548;28;20061;-39
2021/06/19 04:31:20;;;;;;;12.80;7.82;;;22.00;99.90;;;;;;12392774;28;20108;-40
2021/06/19 04:37:26;;;;;;;11.32;6.50;;;22.10;99.90;;;;;;12397093;28;20105;-40
2021/06/19 04:43:32;;;;;;;8.57;5.70;;;22.10;99.90;;;;;;12394884;28;20054;-39
2021/06/19 04:49:34;;;;;;;10.25;5.65;;;22.20;99.90;;;;;;12396320;28;20048;-45
2021/06/19 04:55:36;;;;;;;7.65;5.20;;;22.30;99.90;;;;;;12399099;28;20823;-41
2021/06/19 05:01:39;;;;;;;12.40;4.82;;;22.40;99.90;;;;;;12397278;28;20080;-40
2021/06/19 05:07:41;;;;;;;15.40;5.93;;;22.40;99.90;;;;;;12393325;28;20093;-42
2021/06/19 05:13:48;;;;;;;10.65;5.63;;;22.50;99.90;;;;;;12393199;28;20061;-40
2021/06/19 05:19:50;;;;;;;11.50;5.18;;;22.50;99.90;;;;;;12391528;28;20045;-40
2021/06/19 05:25:52;;;;;;;11.13;4.45;;;22.40;99.90;;;;;;12384275;28;20566;-40
2021/06/19 05:31:54;;;;;;;9.82;4.93;;;22.40;99.90;;;;;;12384199;28;20054;-40
2021/06/19 05:37:55;;;;;;;10.75;4.90;;;22.50;99.90;;;;;;12386723;28;20762;-39
2021/06/19 05:43:58;;;;;;;7.55;4.55;;;22.60;99.90;;;;;;12386406;28;20145;-39
2021/06/19 05:49:59;;;;;;;12.80;5.05;;;22.60;99.90;;;;;;12388168;28;20046;-40
2021/06/19 05:56:01;;;;;;;5.57;3.58;;;22.70;99.90;;;;;;12390049;28;20526;-40
2021/06/19 06:02:04;;;;;;;5.75;3.60;;;22.70;99.90;;;;;;12376962;28;20050;-40
2021/06/19 06:08:06;;;;;;;10.38;3.90;;;22.90;99.90;;;;;;12387086;28;20447;-41
2021/06/19 06:14:08;;;;;;;6.20;3.53;;;22.90;99.90;;;;;;12378879;28;20052;-40
2021/06/19 06:20:13;;;;;;;7.78;3.83;;;22.90;99.90;;;;;;12391062;28;20050;-40
2021/06/19 06:26:16;;;;;;;6.80;3.77;;;23.00;99.90;;;;;;12387005;28;20129;-40
2021/06/19 06:32:18;;;;;;;8.00;3.55;;;23.00;99.90;;;;;;12390224;28;20298;-40
2021/06/19 06:38:20;;;;;;;7.45;3.33;;;23.10;99.90;;;;;;12389024;28;20050;-40
2021/06/19 06:44:22;;;;;;;8.77;2.92;;;23.20;99.90;;;;;;12392569;28;20173;-41
2021/06/19 06:50:26;;;;;;;7.90;2.78;;;23.30;99.90;;;;;;12388936;28;20108;-41
2021/06/19 06:56:28;;;;;;;5.10;2.55;;;23.20;99.90;;;;;;12387611;28;20085;-39
2021/06/19 07:02:31;;;;;;;4.50;2.30;;;23.30;99.90;;;;;;12395211;28;20107;-40
2021/06/19 07:08:33;;;;;;;6.03;2.33;;;23.40;99.90;;;;;;12385339;28;20092;-40
2021/06/19 07:14:34;;;;;;;4.78;2.47;;;23.50;99.90;;;;;;12382339;28;20797;-40
2021/06/19 07:20:36;;;;;;;2.97;1.88;;;23.80;99.90;;;;;;12384120;28;20164;-42
2021/06/19 07:26:38;;;;;;;5.60;2.08;;;23.80;99.90;;;;;;12384375;28;20136;-41
2021/06/19 07:32:40;;;;;;;3.33;1.90;;;23.90;99.90;;;;;;12390761;28;20490;-40
2021/06/19 07:38:43;;;;;;;5.25;1.80;;;24.00;99.90;;;;;;12395295;28;20058;-41
2021/06/19 07:44:44;;;;;;;3.30;1.30;;;23.90;99.90;;;;;;12383552;28;20053;-42
2021/06/19 07:50:46;;;;;;;5.40;1.70;;;24.00;99.90;;;;;;12389410;28;20045;-42
2021/06/19 07:56:48;;;;;;;3.92;1.48;;;24.10;99.90;;;;;;12389816;28;20093;-42
2021/06/19 08:02:50;;;;;;;2.67;1.40;;;24.30;99.90;;;;;;12388207;28;20146;-41
2021/06/19 08:08:54;;;;;;;5.22;1.60;;;24.30;99.90;;;;;;12388749;28;20103;-41
2021/06/19 08:14:56;;;;;;;4.20;1.40;;;24.30;99.90;;;;;;12390110;28;20046;-41
2021/06/19 08:20:58;;;;;;;7.15;1.88;;;24.40;99.90;;;;;;12381258;28;20132;-40
2021/06/19 08:27:00;;;;;;;7.30;1.60;;;24.50;99.90;;;;;;12385327;28;21200;-43
2021/06/19 08:33:02;;;;;;;4.18;1.20;;;24.60;99.90;;;;;;12379616;28;20046;-40
2021/06/19 08:39:05;;;;;;;2.67;1.20;;;24.80;99.90;;;;;;12392180;28;20042;-40
2021/06/19 08:45:07;;;;;;;1.90;1.20;;;24.80;99.90;;;;;;12387119;28;20076;-41
2021/06/19 08:51:09;;;;;;;3.92;1.65;;;24.70;99.90;;;;;;12384290;28;20058;-41
2021/06/19 08:57:13;;;;;;;2.63;1.70;;;24.60;99.90;;;;;;12393036;28;20406;-41
2021/06/19 09:03:22;;;;;;;4.75;1.70;;;24.70;99.90;;;;;;12390797;28;20568;-45
2021/06/19 09:09:24;;;;;;;6.53;1.70;;;25.00;99.90;;;;;;12396286;28;20145;-42
2021/06/19 09:15:28;;;;;;;4.03;1.33;;;25.10;99.90;;;;;;12395980;28;20054;-41
2021/06/19 09:21:35;;;;;;;1.98;1.00;;;25.60;99.90;;;;;;12391412;28;20064;-42
2021/06/19 09:27:40;;;;;;;3.83;1.35;;;25.50;99.90;;;;;;12397610;28;20574;-41
2021/06/19 09:33:41;;;;;;;2.90;1.10;;;25.60;99.90;;;;;;12389469;28;20457;-40
2021/06/19 09:39:43;;;;;;;2.33;1.05;;;25.90;99.90;;;;;;12390417;28;20088;-42
2021/06/19 09:46:03;;;;;;;5.38;1.08;;;26.00;99.90;;;;;;12384403;28;20053;-43
2021/06/19 09:52:07;;;;;;;1.95;1.02;;;25.80;99.90;;;;;;12394884;28;20163;-42
2021/06/19 09:58:08;;;;;;;4.50;1.08;;;26.20;99.90;;;;;;12387135;28;20058;-40
2021/06/19 10:04:15;;;;;;;1.27;0.90;;;26.30;99.90;;;;;;12385190;28;20046;-41
2021/06/19 10:10:17;;;;;;;2.65;0.88;;;26.20;99.90;;;;;;12389297;28;20141;-40
2021/06/19 10:16:20;;;;;;;1.40;0.88;;;26.70;99.90;;;;;;12394816;28;20701;-42
2021/06/19 10:22:29;;;;;;;2.33;0.88;;;27.00;99.90;;;;;;12390925;28;20081;-40
2021/06/19 10:28:33;;;;;;;1.45;0.80;;;26.90;99.90;;;;;;12385501;28;20975;-41
2021/06/19 10:34:37;;;;;;;4.03;0.77;;;27.40;99.90;;;;;;12377657;28;20077;-41
2021/06/19 10:40:52;;;;;;;4.45;1.00;;;27.70;99.90;;;;;;12390937;28;20046;-39
2021/06/19 10:47:01;;;;;;;1.85;1.00;;;27.70;99.90;;;;;;12388297;28;20058;-40
2021/06/19 10:53:20;;;;;;;1.50;0.90;;;27.70;99.90;;;;;;12382563;28;20403;-40
2021/06/19 10:59:34;;;;;;;5.28;1.00;;;28.10;99.90;;;;;;12376337;28;20080;-39
2021/06/19 11:05:43;;;;;;;3.03;1.00;;;28.30;99.90;;;;;;12383151;28;20133;-41
2021/06/19 11:11:55;;;;;;;2.90;0.82;;;28.30;99.90;;;;;;12383331;28;20062;-40
2021/06/19 11:17:57;;;;;;;1.75;0.75;;;28.30;99.90;;;;;;12388586;28;20125;-40
2021/06/19 11:24:02;;;;;;;3.13;1.10;;;28.20;99.90;;;;;;12381934;28;20427;-41
2021/06/19 11:30:05;;;;;;;2.55;1.00;;;28.20;99.90;;;;;;12379698;28;21353;-40
2021/06/19 11:36:17;;;;;;;3.95;0.85;;;28.90;99.90;;;;;;12386465;28;20054;-40
2021/06/19 11:42:22;;;;;;;1.17;0.70;;;29.00;99.90;;;;;;12379006;28;20104;-40
2021/06/19 11:48:24;;;;;;;2.55;0.90;;;29.70;99.90;;;;;;12371223;28;20058;-40
2021/06/19 11:54:26;;;;;;;2.80;1.00;;;29.60;99.90;;;;;;12381035;28;20091;-40
2021/06/19 12:00:28;;;;;;;;;;;29.90;99.90;;;;;;12381043;28;20106;-40
2021/06/19 12:06:31;;;;;;;1.40;0.88;;;29.80;99.90;;;;;;12365645;28;19932;-40
2021/06/19 12:12:33;;;;;;;2.80;0.80;;;30.00;99.90;;;;;;12383262;28;20058;-40
2021/06/19 12:18:35;;;;;;;2.58;0.80;;;30.20;99.90;;;;;;12374893;28;21165;-41
2021/06/19 12:24:38;;;;;;;;;;;30.10;99.90;;;;;;12376706;28;20058;-40
2021/06/19 12:30:53;;;;;;;2.03;0.70;;;30.40;99.90;;;;;;12368170;28;19927;-40
2021/06/19 12:36:56;;;;;;;3.40;1.13;;;30.60;99.90;;;;;;12388383;28;20529;-40
2021/06/19 12:42:58;;;;;;;2.58;0.95;;;30.70;99.90;;;;;;12394461;28;20379;-40
2021/06/19 12:49:05;;;;;;;2.22;0.90;;;30.80;99.90;;;;;;12387072;28;20101;-40
2021/06/19 12:55:11;;;;;;;2.25;0.93;;;30.40;99.90;;;;;;12391668;28;20100;-41
2021/06/19 13:01:34;;;;;;;2.15;0.70;;;30.90;99.90;;;;;;12390212;28;20082;-42
2021/06/19 13:07:36;;;;;;;3.85;0.75;;;31.50;99.90;;;;;;12390578;28;20057;-41
2021/06/19 13:13:43;;;;;;;1.98;0.60;;;31.50;99.90;;;;;;12378387;28;20054;-40
2021/06/19 13:19:47;;;;;;;3.40;0.80;;;31.70;99.90;;;;;;12389328;28;20073;-40
2021/06/19 13:25:56;;;;;;;2.65;0.60;;;31.50;99.90;;;;;;12385812;28;20047;-41
2021/06/19 13:32:00;;;;;;;3.58;0.70;;;31.40;99.90;;;;;;12385421;28;20096;-42
2021/06/19 13:38:02;;;;;;;2.05;0.50;;;31.30;99.90;;;;;;12388203;28;20083;-43
2021/06/19 13:44:06;;;;;;;4.18;0.80;;;31.50;99.90;;;;;;12386206;28;20108;-41
2021/06/19 13:50:09;;;;;;;2.30;0.80;;;31.50;99.90;;;;;;12379177;28;20052;-40
2021/06/19 13:56:10;;;;;;;1.42;0.90;;;31.50;99.90;;;;;;12382546;28;20042;-41
2021/06/19 14:02:14;;;;;;;3.22;0.70;;;31.30;99.90;;;;;;12373333;28;20089;-41
2021/06/19 14:08:15;;;;;;;2.90;0.63;;;30.60;99.90;;;;;;12380895;28;20061;-41
2021/06/19 14:14:17;;;;;;;3.58;0.68;;;31.20;99.90;;;;;;12371724;28;20736;-41
2021/06/19 14:20:19;;;;;;;1.10;0.50;;;31.60;99.90;;;;;;12381329;28;20099;-42
2021/06/19 14:26:26;;;;;;;2.42;0.93;;;31.60;99.90;;;;;;12379481;28;20442;-41
2021/06/19 14:32:31;;;;;;;1.75;0.82;;;31.70;99.90;;;;;;12386529;28;20652;-41
2021/06/19 14:38:33;;;;;;;1.48;0.73;;;31.30;99.90;;;;;;12378616;28;20490;-40
2021/06/19 14:44:34;;;;;;;;;;;31.50;99.90;;;;;;12383261;28;20054;-41
2021/06/19 14:50:37;;;;;;;11.17;7.47;;;31.80;99.90;;;;;;12381807;28;20620;-42
2021/06/19 14:56:39;;;;;;;1.77;0.77;;;31.40;99.90;;;;;;12374309;28;20047;-41
2021/06/19 15:02:41;;;;;;;2.17;1.00;;;30.70;99.90;;;;;;12379449;28;20046;-41
2021/06/19 15:08:43;;;;;;;1.52;0.63;;;29.80;99.90;;;;;;12381605;28;20480;-40
2021/06/19 15:14:45;;;;;;;1.67;0.70;;;29.70;99.90;;;;;;12372474;28;20050;-42
2021/06/19 15:20:49;;;;;;;2.22;0.73;;;29.70;99.90;;;;;;12371774;28;20524;-41
2021/06/19 15:26:51;;;;;;;3.27;0.80;;;29.60;99.90;;;;;;12375778;28;20081;-41
2021/06/19 15:32:53;;;;;;;;;;;29.50;99.90;;;;;;12378940;28;20046;-40
2021/06/19 15:38:55;;;;;;;1.90;0.75;;;29.20;99.90;;;;;;12374410;28;19937;-40
2021/06/19 15:44:57;;;;;;;1.30;0.70;;;29.20;99.90;;;;;;12374688;28;20058;-40
2021/06/19 15:50:59;;;;;;;1.95;0.73;;;29.50;99.90;;;;;;12382425;28;20050;-42
2021/06/19 15:57:01;;;;;;;2.78;0.75;;;29.90;99.90;;;;;;12377770;28;20135;-40
2021/06/19 16:03:03;;;;;;;1.53;0.67;;;30.30;99.90;;;;;;12377090;28;20053;-42
2021/06/19 16:09:05;;;;;;;1.77;0.90;;;29.90;99.90;;;;;;12376091;28;20825;-40
2021/06/19 16:15:12;;;;;;;1.50;0.70;;;30.30;99.90;;;;;;12377816;28;20569;-40
2021/06/19 16:21:14;;;;;;;6.47;0.77;;;30.40;99.90;;;;;;12376442;28;20050;-40
2021/06/19 16:27:16;;;;;;;2.15;0.80;;;30.40;99.90;;;;;;12364772;28;20132;-41
2021/06/19 16:33:18;;;;;;;1.23;0.60;;;30.70;99.90;;;;;;12374585;28;20128;-40
2021/06/19 16:39:19;;;;;;;2.42;0.88;;;30.80;99.90;;;;;;12376063;28;20092;-43
2021/06/19 16:45:21;;;;;;;1.90;1.02;;;31.00;99.90;;;;;;12377865;28;20136;-40
2021/06/19 16:51:23;;;;;;;2.95;0.90;;;31.00;99.90;;;;;;12381394;28;20100;-40
2021/06/19 16:57:25;;;;;;;;;;;30.80;99.90;;;;;;12383501;28;20062;-41
2021/06/19 17:03:27;;;;;;;2.28;1.02;;;31.10;99.90;;;;;;12372754;28;19926;-40
2021/06/19 17:09:29;;;;;;;2.33;0.70;;;31.50;99.90;;;;;;12380117;28;20058;-41
2021/06/19 17:15:31;;;;;;;2.40;0.75;;;31.80;99.90;;;;;;12372923;28;20050;-41
2021/06/19 17:21:32;;;;;;;2.33;0.90;;;31.90;99.90;;;;;;12372868;28;20136;-42
2021/06/19 17:27:35;;;;;;;;;;;31.80;99.90;;;;;;12375938;28;20346;-41
2021/06/19 17:33:36;;;;;;;2.47;0.80;;;31.90;99.90;;;;;;12383214;28;19925;-40
2021/06/19 17:39:38;;;;;;;1.75;0.90;;;32.10;99.90;;;;;;12384404;28;20047;-41
2021/06/19 17:45:40;;;;;;;3.25;1.02;;;32.50;99.90;;;;;;12389380;28;20136;-41
2021/06/19 17:51:42;;;;;;;2.08;1.08;;;32.50;99.90;;;;;;12381357;28;20427;-40
2021/06/19 17:57:45;;;;;;;2.33;1.10;;;32.20;99.90;;;;;;12380576;28;21281;-40
2021/06/19 18:03:47;;;;;;;1.95;1.08;;;32.00;99.90;;;;;;12387397;28;20116;-40
2021/06/19 18:09:49;;;;;;;2.40;1.00;;;31.40;99.90;;;;;;12379053;28;20058;-40
2021/06/19 18:15:53;;;;;;;5.38;1.40;;;30.80;99.90;;;;;;12380681;28;20132;-40
2021/06/19 18:21:55;;;;;;;2.40;1.00;;;29.80;99.90;;;;;;12381760;28;20058;-42
2021/06/19 18:27:57;;;;;;;4.22;1.17;;;29.20;99.90;;;;;;12379607;28;20050;-42
2021/06/19 18:33:59;;;;;;;3.97;1.20;;;29.00;99.90;;;;;;12383332;28;20050;-44
2021/06/19 18:40:03;;;;;;;5.97;1.40;;;28.50;99.90;;;;;;12379290;28;20453;-41
2021/06/19 18:46:05;;;;;;;6.60;1.60;;;28.20;99.90;;;;;;12379303;28;20053;-41
2021/06/19 18:52:08;;;;;;;3.40;1.30;;;27.80;99.90;;;;;;12382516;28;20057;-40
2021/06/19 18:58:10;;;;;;;3.55;1.40;;;27.70;99.90;;;;;;12382662;28;20054;-40
2021/06/19 19:04:13;;;;;;;2.13;1.40;;;27.30;99.90;;;;;;12381347;28;21199;-40
2021/06/19 19:10:15;;;;;;;2.97;1.60;;;27.20;99.90;;;;;;12380912;28;20052;-43
2021/06/19 19:16:18;;;;;;;2.75;1.52;;;26.60;99.90;;;;;;12390228;28;20050;-40
2021/06/19 19:22:20;;;;;;;4.07;1.60;;;26.70;99.90;;;;;;12391241;28;20053;-41
2021/06/19 19:28:22;;;;;;;4.65;2.10;;;26.70;99.90;;;;;;12385016;28;20061;-40
2021/06/19 19:34:24;;;;;;;3.80;1.40;;;26.50;99.90;;;;;;12389822;28;20054;-41
2021/06/19 19:40:26;;;;;;;2.53;1.63;;;26.40;99.90;;;;;;12396976;28;20506;-40
2021/06/19 19:46:28;;;;;;;9.10;2.60;;;26.10;99.90;;;;;;12386416;28;20531;-40
2021/06/19 19:52:31;;;;;;;4.50;1.70;;;26.10;99.90;;;;;;12395339;28;20429;-41
2021/06/19 19:58:34;;;;;;;2.70;1.58;;;26.10;99.90;;;;;;12382791;28;20046;-41
2021/06/19 20:04:37;;;;;;;5.32;1.90;;;26.00;99.90;;;;;;12391072;28;20548;-40
2021/06/19 20:10:39;;;;;;;5.57;1.60;;;25.90;99.90;;;;;;12385742;28;20046;-41
2021/06/19 20:16:41;;;;;;;3.13;1.70;;;25.80;99.90;;;;;;12379683;28;20174;-40
2021/06/19 20:22:45;;;;;;;3.28;1.88;;;25.70;99.90;;;;;;12386298;28;20089;-40
2021/06/19 20:28:46;;;;;;;3.33;2.00;;;25.60;99.90;;;;;;12386956;28;20152;-41
2021/06/19 20:34:48;;;;;;;6.28;1.80;;;25.50;99.90;;;;;;12386303;28;20104;-40
2021/06/19 20:40:52;;;;;;;3.03;1.70;;;25.20;99.90;;;;;;12391214;28;20107;-40
2021/06/19 20:46:54;;;;;;;3.53;1.52;;;25.10;99.90;;;;;;12393789;28;20054;-40
2021/06/19 20:52:55;;;;;;;4.93;1.48;;;24.90;99.90;;;;;;12390137;28;20431;-39
2021/06/19 20:58:57;;;;;;;3.45;1.70;;;24.80;99.90;;;;;;12393429;28;20111;-39
2021/06/19 21:04:59;;;;;;;3.75;1.52;;;24.60;99.90;;;;;;12395497;28;20099;-40
2021/06/19 21:11:01;;;;;;;3.78;1.38;;;24.60;99.90;;;;;;12386333;28;20054;-40
2021/06/19 21:17:03;;;;;;;3.13;1.45;;;24.60;99.90;;;;;;12393758;28;20083;-40
2021/06/19 21:23:05;;;;;;;3.53;1.40;;;24.60;99.90;;;;;;12386164;28;20816;-40
2021/06/19 21:29:06;;;;;;;3.35;1.50;;;24.60;99.90;;;;;;12393476;28;20157;-40
2021/06/19 21:35:10;;;;;;;3.70;1.50;;;24.60;99.90;;;;;;12398534;28;20832;-39
2021/06/19 21:41:12;;;;;;;;;;;24.50;99.90;;;;;;12390526;28;20050;-41
2021/06/19 21:47:15;;;;;;;2.90;1.50;;;24.40;99.90;;;;;;12396002;28;19965;-40
2021/06/19 21:53:17;;;;;;;;;;;24.30;99.90;;;;;;12397640;28;20042;-39
2021/06/19 21:59:26;;;;;;;10.27;2.30;;;24.30;99.90;;;;;;12391221;28;19926;-40
2021/06/19 22:05:28;;;;;;;2.58;1.30;;;24.30;99.90;;;;;;12396719;28;20149;-41
2021/06/19 22:11:30;;;;;;;2.27;1.40;;;24.30;99.90;;;;;;12392366;28;20046;-40
2021/06/19 22:17:33;;;;;;;2.67;1.73;;;24.30;99.90;;;;;;12384792;28;20616;-39
2021/06/19 22:23:36;;;;;;;3.17;1.70;;;24.40;99.90;;;;;;12389920;28;20050;-40
2021/06/19 22:29:39;;;;;;;3.33;1.70;;;24.30;99.90;;;;;;12387458;28;20145;-39
2021/06/19 22:35:41;;;;;;;4.53;1.63;;;24.30;99.90;;;;;;12390401;28;20058;-40
2021/06/19 22:41:43;;;;;;;2.42;1.42;;;24.30;99.90;;;;;;12395041;28;20108;-39
2021/06/19 22:47:45;;;;;;;2.92;1.52;;;24.20;99.90;;;;;;12388629;28;20144;-39
2021/06/19 22:53:46;;;;;;;6.22;1.80;;;24.10;99.90;;;;;;12392998;28;20050;-39
2021/06/19 22:59:49;;;;;;;7.57;1.80;;;24.00;99.90;;;;;;12386047;28;20045;-39
2021/06/19 23:05:51;;;;;;;2.35;1.48;;;24.00;99.90;;;;;;12396174;28;20096;-39
2021/06/19 23:11:53;;;;;;;2.95;1.38;;;24.00;99.90;;;;;;12402291;28;20038;-40
2021/06/19 23:17:54;;;;;;;4.03;1.42;;;23.90;99.90;;;;;;12385502;28;20100;-39
2021/06/19 23:23:57;;;;;;;2.22;1.45;;;23.90;99.90;;;;;;12389595;28;20061;-39
2021/06/19 23:29:58;;;;;;;6.32;1.58;;;24.00;99.90;;;;;;12387590;28;20050;-40
2021/06/19 23:36:01;;;;;;;3.85;1.52;;;24.00;99.90;;;;;;12387019;28;20095;-39
2021/06/19 23:42:03;;;;;;;2.72;1.50;;;23.80;99.90;;;;;;12387595;28;20594;-40
2021/06/19 23:48:07;;;;;;;2.53;1.50;;;23.70;99.90;;;;;;12386330;28;20054;-39
2021/06/19 23:54:09;;;;;;;7.00;1.70;;;23.60;99.90;;;;;;12389454;28;20053;-40
